Time;durP1;ratioP1;P1;durP2;ratioP2;P2;SDS_P1;SDS_P2;PMS_P1;PMS_P2;Temp;Humidity;BMP_temperature;BMP_pressure;BME280_temperature;BME280_humidity;BME280_pressure;Samples;Min_cycle;Max_cycle;Signal;HPM_P1;HPM_P2
2021/12/06 00:01:54;;;;;;;76.43;37.63;;;;;;;3.71;100.00;101108.16;5004658;28;20038;-71
2021/12/06 00:04:24;;;;;;;73.53;35.40;;;;;;;3.67;100.00;101112.41;4986434;28;20473;-72
2021/12/06 00:06:54;;;;;;;83.47;36.63;;;;;;;3.75;100.00;101111.97;5005021;28;20053;-72
2021/12/06 00:09:22;;;;;;;77.97;36.30;;;;;;;3.69;100.00;101115.66;5006672;28;20084;-72
2021/12/06 00:11:50;;;;;;;75.32;35.45;;;;;;;3.73;100.00;101125.72;4992568;28;20049;-71
2021/12/06 00:14:16;;;;;;;81.65;37.10;;;;;;;3.69;100.00;101123.75;4988083;28;20057;-71
2021/12/06 00:16:42;;;;;;;73.65;36.03;;;;;;;3.82;100.00;101126.09;5006257;28;20356;-71
2021/12/06 00:19:07;;;;;;;79.25;37.92;;;;;;;3.78;100.00;101127.63;5004946;28;20045;-71
2021/12/06 00:21:33;;;;;;;76.68;37.83;;;;;;;3.72;100.00;101124.06;5002860;28;20037;-71
2021/12/06 00:23:59;;;;;;;78.60;36.78;;;;;;;3.70;100.00;101139.69;4999007;28;20206;-71
2021/12/06 00:26:24;;;;;;;74.63;36.65;;;;;;;3.84;100.00;101134.75;4998357;28;20055;-71
2021/12/06 00:28:56;;;;;;;83.43;36.97;;;;;;;3.67;100.00;101142.91;4999149;28;20033;-71
2021/12/06 00:31:24;;;;;;;73.43;37.22;;;;;;;3.74;100.00;101145.41;4997307;28;20041;-71
2021/12/06 00:33:58;;;;;;;81.07;40.28;;;;;;;3.79;100.00;101156.25;4999248;28;20034;-71
2021/12/06 00:36:28;;;;;;;78.15;38.45;;;;;;;3.94;100.00;101156.44;4996994;28;20053;-71
2021/12/06 00:38:54;;;;;;;76.85;39.47;;;;;;;3.74;100.00;101166.97;4996469;28;20121;-71
2021/12/06 00:41:20;;;;;;;80.90;39.15;;;;;;;3.85;100.00;101174.13;4997283;28;20034;-71
2021/12/06 00:43:46;;;;;;;91.10;36.92;;;;;;;3.72;100.00;101180.69;4998830;28;20042;-71
2021/12/06 00:46:13;;;;;;;79.40;35.67;;;;;;;3.65;100.00;101181.97;4998507;28;20544;-71
2021/12/06 00:48:39;;;;;;;95.53;39.58;;;;;;;3.78;100.00;101173.50;4965959;28;20042;-71
2021/12/06 00:51:05;;;;;;;88.45;41.28;;;;;;;3.72;100.00;101179.88;4997993;28;20033;-70
2021/12/06 00:53:30;;;;;;;85.47;39.65;;;;;;;3.72;100.00;101179.88;4996694;28;20041;-71
2021/12/06 00:55:56;;;;;;;99.82;42.72;;;;;;;3.74;100.00;101175.06;4998573;28;20499;-71
2021/12/06 00:58:22;;;;;;;102.35;43.53;;;;;;;3.77;100.00;101174.56;4999061;28;20406;-71
2021/12/06 01:00:51;;;;;;;99.80;42.05;;;;;;;3.77;100.00;101179.97;4996222;28;20383;-71
2021/12/06 01:03:24;;;;;;;91.78;41.25;;;;;;;3.72;100.00;101183.41;4998105;28;20852;-70
2021/12/06 01:05:50;;;;;;;101.80;43.08;;;;;;;3.74;100.00;101188.56;4997849;28;20057;-71
2021/12/06 01:08:18;;;;;;;90.38;37.95;;;;;;;3.65;100.00;101192.75;4997787;28;20030;-72
2021/12/06 01:10:43;;;;;;;105.00;42.38;;;;;;;3.80;100.00;101193.75;4996151;28;20042;-71
2021/12/06 01:13:09;;;;;;;111.80;46.20;;;;;;;3.78;100.00;101200.47;4998397;28;20048;-71
2021/12/06 01:15:36;;;;;;;101.72;43.95;;;;;;;3.84;100.00;101199.50;4998283;28;20121;-70
2021/12/06 01:18:03;;;;;;;100.22;45.00;;;;;;;3.79;100.00;101205.63;4997018;28;20405;-71
2021/12/06 01:20:34;;;;;;;107.10;45.38;;;;;;;3.72;100.00;101210.38;4996718;28;20073;-70
2021/12/06 01:23:06;;;;;;;110.53;45.08;;;;;;;3.75;100.00;101212.59;4982345;28;20394;-70
2021/12/06 01:28:35;;;;;;;125.45;48.45;;;;;;;3.80;100.00;101206.44;4995727;28;20057;-70
2021/12/06 01:34:07;;;;;;;125.47;50.50;;;;;;;3.76;100.00;101206.13;4995335;28;20049;-70
2021/12/06 01:39:20;;;;;;;129.82;52.60;;;;;;;3.89;100.00;101202.25;4995740;28;20045;-70
2021/12/06 01:42:01;;;;;;;116.53;48.83;;;;;;;3.80;100.00;101217.22;4995198;28;20140;-72
2021/12/06 01:44:30;;;;;;;122.30;51.70;;;;;;;3.91;100.00;101226.28;4997013;28;20824;-71
2021/12/06 01:47:11;;;;;;;132.75;51.88;;;;;;;3.82;100.00;101234.81;4972155;28;20045;-71
2021/12/06 01:49:41;;;;;;;124.55;52.92;;;;;;;3.86;100.00;101235.13;4973123;28;20098;-71
2021/12/06 01:52:11;;;;;;;129.57;50.72;;;;;;;4.00;100.00;101244.47;4995491;28;20525;-71
2021/12/06 01:54:37;;;;;;;122.65;47.88;;;;;;;3.88;100.00;101248.38;4995489;28;20857;-72
2021/12/06 01:57:03;;;;;;;138.27;53.55;;;;;;;4.03;100.00;101246.69;4997397;28;20475;-71
2021/12/06 01:59:29;;;;;;;134.63;52.22;;;;;;;3.95;100.00;101243.59;4979852;28;20270;-71
2021/12/06 02:01:55;;;;;;;119.95;51.67;;;;;;;3.92;100.00;101247.59;4979915;28;20505;-71
2021/12/06 02:04:22;;;;;;;123.32;52.05;;;;;;;4.00;100.00;101241.78;4974500;28;20137;-71
2021/12/06 02:06:47;;;;;;;128.75;52.72;;;;;;;4.03;100.00;101235.88;4990041;28;20153;-71
2021/12/06 02:09:17;;;;;;;137.27;51.92;;;;;;;4.03;100.00;101241.28;4996007;28;20086;-69
2021/12/06 02:11:44;;;;;;;133.48;53.50;;;;;;;3.86;100.00;101235.91;4980089;28;20690;-69
2021/12/06 02:19:32;;;;;;;138.05;54.15;;;;;;;3.96;100.00;101237.97;4997998;28;20038;-71
2021/12/06 02:21:59;;;;;;;139.95;53.45;;;;;;;3.94;100.00;101242.78;4996076;28;20618;-71
2021/12/06 02:24:25;;;;;;;128.77;52.65;;;;;;;3.96;100.00;101246.06;4995692;28;20064;-70
2021/12/06 02:26:53;;;;;;;139.25;55.38;;;;;;;3.97;100.00;101250.38;4995532;28;20046;-70
2021/12/06 02:29:19;;;;;;;151.90;54.40;;;;;;;3.97;100.00;101242.28;4997388;28;20069;-70
2021/12/06 02:31:46;;;;;;;137.82;52.63;;;;;;;4.09;100.00;101250.25;4995711;28;20030;-70
2021/12/06 02:34:12;;;;;;;131.82;54.00;;;;;;;4.00;100.00;101252.56;5012728;28;20499;-69
2021/12/06 02:36:40;;;;;;;132.80;52.53;;;;;;;4.05;100.00;101255.34;4998227;28;20368;-70
2021/12/06 02:39:09;;;;;;;152.88;53.50;;;;;;;3.95;100.00;101257.91;4996971;28;20037;-70
2021/12/06 02:41:36;;;;;;;137.00;53.38;;;;;;;4.08;100.00;101265.66;4998592;28;20108;-70
2021/12/06 02:44:06;;;;;;;136.52;53.17;;;;;;;4.22;100.00;101259.88;4995891;28;20367;-70
2021/12/06 02:46:31;;;;;;;144.82;56.33;;;;;;;4.21;100.00;101269.03;4987450;28;20052;-70
2021/12/06 02:48:57;;;;;;;141.82;52.97;;;;;;;4.35;100.00;101264.91;4995477;28;20042;-70
2021/12/06 02:51:25;;;;;;;118.05;48.83;;;;;;;4.21;100.00;101274.44;4997104;28;20456;-70
2021/12/06 02:53:51;;;;;;;132.93;51.00;;;;;;;4.20;100.00;101272.81;4996089;28;20271;-71
2021/12/06 02:56:31;;;;;;;123.22;50.88;;;;;;;4.29;100.00;101276.69;4995933;28;20045;-71
2021/12/06 02:59:02;;;;;;;146.52;57.00;;;;;;;4.17;100.00;101273.31;4978664;28;20148;-70
2021/12/06 03:01:37;;;;;;;139.75;54.33;;;;;;;4.29;100.00;101277.50;4979194;28;20434;-70
2021/12/06 03:04:04;;;;;;;148.40;56.05;;;;;;;4.05;100.00;101274.25;4978530;28;20502;-71
2021/12/06 03:06:31;;;;;;;144.70;55.40;;;;;;;4.14;100.00;101273.81;4979201;28;20550;-71
2021/12/06 03:09:13;;;;;;;140.93;54.08;;;;;;;4.25;100.00;101281.78;4981654;28;20602;-70
2021/12/06 03:11:43;;;;;;;146.70;53.37;;;;;;;4.30;100.00;101281.88;4995535;28;20033;-70
2021/12/06 03:14:22;;;;;;;148.55;58.05;;;;;;;4.09;100.00;101283.47;4995971;28;20499;-71
2021/12/06 03:16:52;;;;;;;134.05;51.20;;;;;;;4.32;100.00;101276.19;4976278;28;20049;-70
2021/12/06 03:19:17;;;;;;;136.63;53.40;;;;;;;4.35;100.00;101275.69;4996149;28;20419;-71
2021/12/06 03:21:43;;;;;;;132.00;51.33;;;;;;;4.43;100.00;101277.16;4996440;28;20049;-71
2021/12/06 03:24:09;;;;;;;133.10;51.63;;;;;;;4.31;100.00;101285.38;4993464;28;20034;-71
2021/12/06 03:26:37;;;;;;;135.45;55.05;;;;;;;4.23;100.00;101292.00;4995903;28;20045;-71
2021/12/06 03:29:05;;;;;;;140.70;54.30;;;;;;;4.24;100.00;101290.13;4993943;28;20449;-71
2021/12/06 03:31:31;;;;;;;145.48;54.95;;;;;;;4.35;100.00;101294.59;4996077;28;20040;-72
2021/12/06 03:34:01;;;;;;;147.85;53.67;;;;;;;4.28;100.00;101293.97;4974865;28;20134;-70
2021/12/06 03:36:31;;;;;;;134.77;52.25;;;;;;;4.15;100.00;101302.44;4959264;28;20055;-71
2021/12/06 03:38:59;;;;;;;141.75;51.92;;;;;;;4.28;100.00;101299.38;4966116;28;20439;-70
2021/12/06 03:41:27;;;;;;;124.45;46.60;;;;;;;4.10;100.00;101305.84;4994533;28;20034;-71
2021/12/06 03:43:54;;;;;;;108.43;41.42;;;;;;;3.96;100.00;101315.41;4978519;28;20297;-71
2021/12/06 03:46:22;;;;;;;111.68;43.42;;;;;;;4.00;100.00;101306.53;4977749;28;20038;-71
2021/12/06 03:48:48;;;;;;;113.93;43.28;;;;;;;4.07;100.00;101304.50;4977246;28;20124;-71
2021/12/06 03:51:15;;;;;;;121.05;45.15;;;;;;;3.98;100.00;101311.38;4977776;28;20056;-72
2021/12/06 03:53:41;;;;;;;134.43;49.45;;;;;;;4.07;100.00;101320.69;5010698;28;20064;-72
2021/12/06 03:56:07;;;;;;;143.90;52.97;;;;;;;4.15;100.00;101318.63;4993756;28;20042;-70
2021/12/06 03:58:34;;;;;;;146.40;51.72;;;;;;;4.00;100.00;101322.75;4980891;28;20049;-71
2021/12/06 04:01:02;;;;;;;123.97;48.10;;;;;;;4.02;100.00;101319.81;4978011;28;20034;-71
2021/12/06 04:03:30;;;;;;;136.38;52.30;;;;;;;4.03;100.00;101322.25;4977544;28;20050;-71
2021/12/06 04:05:57;;;;;;;152.93;58.80;;;;;;;3.98;100.00;101324.84;4977521;28;20765;-70
2021/12/06 04:08:23;;;;;;;166.55;58.92;;;;;;;3.99;100.00;101326.50;4993300;28;20372;-71
2021/12/06 04:10:49;;;;;;;162.13;58.83;;;;;;;3.96;100.00;101321.59;4993771;28;20159;-71
2021/12/06 04:13:15;;;;;;;159.02;55.33;;;;;;;4.08;100.00;101319.63;4995696;28;20077;-71
2021/12/06 04:15:45;;;;;;;161.23;57.72;;;;;;;4.24;100.00;101322.53;4979538;28;20480;-72
2021/12/06 04:18:11;;;;;;;151.00;56.75;;;;;;;4.37;100.00;101315.97;4994577;28;20354;-72
2021/12/06 04:20:37;;;;;;;152.30;56.67;;;;;;;4.28;100.00;101307.47;4976416;28;20069;-71
2021/12/06 04:23:05;;;;;;;164.70;58.75;;;;;;;4.31;100.00;101306.97;4995521;28;20042;-71
2021/12/06 04:25:32;;;;;;;144.73;53.88;;;;;;;4.24;100.00;101307.13;4980340;28;20056;-71
2021/12/06 04:28:04;;;;;;;165.07;58.10;;;;;;;4.16;100.00;101314.84;4980561;28;20475;-70
2021/12/06 04:30:29;;;;;;;166.23;56.25;;;;;;;4.27;100.00;101316.63;4997123;28;20065;-70
2021/12/06 04:32:56;;;;;;;166.70;57.60;;;;;;;4.03;100.00;101316.84;4998762;28;20038;-70
2021/12/06 04:35:23;;;;;;;169.30;57.58;;;;;;;4.00;100.00;101314.63;4995569;28;20100;-70
2021/12/06 04:37:50;;;;;;;166.45;57.33;;;;;;;4.02;100.00;101322.50;4982388;28;20443;-69
2021/12/06 04:40:15;;;;;;;164.85;60.08;;;;;;;4.05;100.00;101319.31;4997045;28;20101;-70
2021/12/06 04:42:41;;;;;;;184.65;60.38;;;;;;;4.15;100.00;101314.03;4993416;28;20164;-70
2021/12/06 04:45:08;;;;;;;190.70;61.80;;;;;;;4.26;100.00;101328.50;4988721;28;20039;-70
2021/12/06 04:47:35;;;;;;;179.80;60.65;;;;;;;4.25;100.00;101333.09;4996349;28;20056;-70
2021/12/06 04:50:00;;;;;;;168.02;55.67;;;;;;;4.07;100.00;101345.00;4999452;28;20543;-69
2021/12/06 04:52:26;;;;;;;173.85;59.70;;;;;;;4.06;100.00;101342.53;4979856;28;20498;-69
2021/12/06 04:54:57;;;;;;;174.35;59.50;;;;;;;3.95;100.00;101341.53;4979561;28;20104;-70
2021/12/06 04:57:35;;;;;;;181.40;59.45;;;;;;;4.05;100.00;101344.41;4997992;28;20072;-70
2021/12/06 05:00:22;;;;;;;180.57;60.58;;;;;;;3.96;100.00;101343.19;4978978;28;20048;-73
2021/12/06 05:02:48;;;;;;;192.70;60.60;;;;;;;4.05;100.00;101352.50;4979206;28;20494;-70
2021/12/06 05:05:25;;;;;;;182.50;60.67;;;;;;;4.12;100.00;101349.63;4997432;28;20466;-69
2021/12/06 05:08:15;;;;;;;182.23;61.17;;;;;;;3.97;100.00;101360.19;4998097;28;20029;-70
2021/12/06 05:10:41;;;;;;;186.45;60.05;;;;;;;3.99;100.00;101369.69;4995412;28;20037;-69
2021/12/06 05:13:07;;;;;;;180.70;59.78;;;;;;;3.73;100.00;101367.66;4976799;28;20383;-69
2021/12/06 05:15:33;;;;;;;188.73;61.15;;;;;;;3.75;100.00;101365.50;4997660;28;20033;-70
2021/12/06 05:18:01;;;;;;;202.52;61.90;;;;;;;3.77;100.00;101371.47;4993912;28;20385;-70
2021/12/06 05:20:27;;;;;;;197.23;63.58;;;;;;;3.89;100.00;101366.81;4986623;28;20269;-70
2021/12/06 05:22:53;;;;;;;176.63;64.60;;;;;;;3.91;100.00;101363.88;5001499;28;20084;-72
2021/12/06 05:25:22;;;;;;;196.50;63.78;;;;;;;3.90;100.00;101364.94;5000728;28;20073;-71
2021/12/06 05:27:49;;;;;;;204.35;62.92;;;;;;;3.81;100.00;101364.53;4981170;28;20489;-71
2021/12/06 05:30:16;;;;;;;204.70;65.97;;;;;;;3.81;100.00;101362.66;4972040;28;20040;-71
2021/12/06 05:32:43;;;;;;;189.05;61.17;;;;;;;4.04;100.00;101363.53;4981628;28;20046;-72
2021/12/06 05:35:09;;;;;;;193.60;61.97;;;;;;;4.06;100.00;101369.50;4998106;28;20141;-71
2021/12/06 05:37:41;;;;;;;182.43;59.47;;;;;;;3.97;100.00;101377.19;4999023;28;20247;-71
2021/12/06 05:40:11;;;;;;;178.38;61.00;;;;;;;3.75;100.00;101374.44;4998921;28;20429;-71
2021/12/06 05:42:37;;;;;;;186.43;59.28;;;;;;;3.73;100.00;101375.75;4999969;28;20050;-70
2021/12/06 05:45:05;;;;;;;195.38;65.55;;;;;;;3.72;100.00;101379.47;4999778;28;20080;-70
2021/12/06 05:47:30;;;;;;;180.35;61.85;;;;;;;3.87;100.00;101374.34;4999666;28;20048;-71
2021/12/06 05:49:56;;;;;;;190.40;60.50;;;;;;;3.88;100.00;101373.28;5000085;28;20034;-70
2021/12/06 05:52:21;;;;;;;178.35;60.33;;;;;;;3.79;100.00;101377.47;4999870;28;20054;-71
2021/12/06 05:54:47;;;;;;;191.80;59.22;;;;;;;3.61;100.00;101378.50;5001572;28;20729;-70
2021/12/06 05:57:14;;;;;;;197.60;62.67;;;;;;;3.59;100.00;101381.44;4997269;28;20453;-73
2021/12/06 05:59:41;;;;;;;180.35;61.67;;;;;;;3.70;100.00;101378.94;4983656;28;20034;-70
2021/12/06 06:02:07;;;;;;;182.15;63.05;;;;;;;3.84;100.00;101388.34;4993181;28;20046;-71
2021/12/06 06:04:33;;;;;;;210.30;67.25;;;;;;;3.65;100.00;101374.25;4966381;28;20081;-70
2021/12/06 06:06:58;;;;;;;191.23;62.65;;;;;;;3.52;100.00;101380.78;4953038;28;20121;-71
2021/12/06 06:09:24;;;;;;;191.65;63.13;;;;;;;3.67;100.00;101374.84;4968812;28;20050;-70
2021/12/06 06:11:49;;;;;;;199.38;65.18;;;;;;;3.49;100.00;101375.88;4969846;28;20053;-71
2021/12/06 06:14:16;;;;;;;185.07;62.33;;;;;;;3.32;100.00;101369.66;4974299;28;20047;-71
2021/12/06 06:16:49;;;;;;;181.07;60.88;;;;;;;3.34;100.00;101367.50;4973081;28;20785;-70
2021/12/06 06:19:19;;;;;;;187.00;60.67;;;;;;;3.31;100.00;101374.19;4971910;28;20467;-70
2021/12/06 06:21:46;;;;;;;194.82;62.47;;;;;;;3.25;100.00;101368.97;4969777;28;20185;-71
2021/12/06 06:24:11;;;;;;;188.90;61.45;;;;;;;3.18;100.00;101372.63;4966505;28;20398;-72
2021/12/06 06:26:37;;;;;;;187.60;60.67;;;;;;;3.20;100.00;101376.94;4971972;28;20146;-72
2021/12/06 06:29:02;;;;;;;204.88;63.47;;;;;;;3.24;100.00;101380.81;4968202;28;20038;-71
2021/12/06 06:31:28;;;;;;;212.32;66.90;;;;;;;3.13;100.00;101383.31;4981320;28;20690;-72
2021/12/06 06:33:53;;;;;;;180.50;57.83;;;;;;;2.83;100.00;101385.41;4978715;28;20418;-72
2021/12/06 06:36:19;;;;;;;197.70;59.40;;;;;;;2.88;100.00;101388.19;4972580;28;20039;-72
2021/12/06 06:38:44;;;;;;;213.52;57.17;;;;;;;2.70;100.00;101394.56;4968630;28;20038;-71
2021/12/06 06:41:10;;;;;;;219.73;67.45;;;;;;;2.89;100.00;101397.94;4953205;28;20065;-71
2021/12/06 06:43:36;;;;;;;220.88;62.63;;;;;;;2.98;100.00;101391.09;4964194;28;20042;-72
2021/12/06 06:46:05;;;;;;;245.52;56.25;;;;;;;2.66;100.00;101390.72;4987319;28;20057;-71
2021/12/06 06:48:32;;;;;;;217.60;54.70;;;;;;;2.55;100.00;101389.69;4982562;28;20042;-72
2021/12/06 06:50:58;;;;;;;284.45;64.93;;;;;;;2.60;100.00;101400.56;4947033;28;20038;-72
2021/12/06 06:53:24;;;;;;;305.63;67.45;;;;;;;2.35;100.00;101400.81;4977038;28;20377;-72
2021/12/06 06:55:49;;;;;;;255.82;62.53;;;;;;;2.45;100.00;101405.63;4966824;28;20132;-71
2021/12/06 06:58:15;;;;;;;168.60;49.75;;;;;;;2.39;100.00;101401.19;4966588;28;20038;-72
2021/12/06 07:00:41;;;;;;;233.63;59.17;;;;;;;2.36;100.00;101405.16;4977481;28;20061;-72
2021/12/06 07:03:08;;;;;;;260.98;64.40;;;;;;;2.39;100.00;101409.25;4994586;28;20553;-72
2021/12/06 07:05:35;;;;;;;256.00;65.35;;;;;;;2.44;100.00;101412.03;5010712;28;20057;-71
2021/12/06 07:08:00;;;;;;;301.17;70.57;;;;;;;2.68;100.00;101402.91;4997732;28;20049;-72
2021/12/06 07:10:26;;;;;;;346.45;69.65;;;;;;;2.68;100.00;101405.59;5015035;28;20154;-72
2021/12/06 07:12:54;;;;;;;310.92;75.85;;;;;;;2.63;100.00;101405.47;5015387;28;20042;-72
2021/12/06 07:15:29;;;;;;;247.55;69.68;;;;;;;2.45;100.00;101405.63;5015182;28;20160;-71
2021/12/06 07:17:55;;;;;;;292.15;77.35;;;;;;;2.34;100.00;101401.06;5015743;28;20067;-72
2021/12/06 07:20:21;;;;;;;210.68;67.05;;;;;;;2.52;100.00;101405.50;5013806;28;20042;-72
2021/12/06 07:22:49;;;;;;;244.73;71.13;;;;;;;2.45;100.00;101411.00;4988956;28;20078;-72
2021/12/06 07:25:16;;;;;;;186.02;67.30;;;;;;;2.51;100.00;101415.44;4988116;28;20069;-72
2021/12/06 07:27:43;;;;;;;216.60;66.18;;;;;;;2.55;100.00;101419.28;4995725;28;20078;-71
2021/12/06 07:30:10;;;;;;;211.32;63.38;;;;;;;2.47;100.00;101416.94;4995637;28;20566;-71
2021/12/06 07:32:36;;;;;;;198.30;65.15;;;;;;;2.50;100.00;101421.88;4995744;28;20488;-71
2021/12/06 07:35:03;;;;;;;169.73;62.05;;;;;;;2.51;100.00;101423.53;4995874;28;20055;-71
2021/12/06 07:37:29;;;;;;;188.55;62.22;;;;;;;2.41;100.00;101425.97;4995279;28;20048;-71
2021/12/06 07:39:54;;;;;;;181.48;61.90;;;;;;;2.40;100.00;101437.81;4995922;28;20034;-71
2021/12/06 07:42:20;;;;;;;198.38;65.15;;;;;;;2.47;100.00;101431.25;4995359;28;20038;-71
2021/12/06 07:44:45;;;;;;;164.15;61.40;;;;;;;2.46;100.00;101431.47;4995381;28;20038;-71
2021/12/06 07:47:12;;;;;;;165.55;62.40;;;;;;;2.47;100.00;101435.78;4996149;28;20104;-71
2021/12/06 07:49:38;;;;;;;175.18;61.67;;;;;;;2.58;100.00;101436.84;4995073;28;20064;-72
2021/12/06 07:52:07;;;;;;;188.57;64.78;;;;;;;2.64;100.00;101439.41;4996235;28;20045;-71
2021/12/06 07:54:33;;;;;;;177.35;62.47;;;;;;;2.70;100.00;101445.72;4995491;28;20049;-71
2021/12/06 07:56:59;;;;;;;174.23;60.75;;;;;;;2.49;100.00;101447.97;4995582;28;20076;-71
2021/12/06 07:59:25;;;;;;;157.82;61.28;;;;;;;2.53;100.00;101453.72;4998523;28;20414;-71
2021/12/06 08:01:51;;;;;;;156.82;59.28;;;;;;;2.61;100.00;101445.28;4979442;28;20218;-70
2021/12/06 08:04:17;;;;;;;174.02;59.95;;;;;;;2.41;100.00;101448.31;4981258;28;20062;-71
2021/12/06 08:06:42;;;;;;;164.50;59.10;;;;;;;2.51;100.00;101442.38;4999302;28;20069;-71
2021/12/06 08:09:08;;;;;;;278.13;70.65;;;;;;;2.54;100.00;101446.47;4998001;28;20077;-71
2021/12/06 08:11:33;;;;;;;210.60;67.75;;;;;;;2.53;100.00;101447.50;5016548;28;20056;-71
2021/12/06 08:13:59;;;;;;;182.02;61.38;;;;;;;2.49;100.00;101444.47;5016007;28;20049;-70
2021/12/06 08:16:29;;;;;;;190.07;61.13;;;;;;;2.45;100.00;101446.00;4998275;28;20049;-71
2021/12/06 08:18:55;;;;;;;191.40;60.15;;;;;;;2.26;100.00;101443.41;5008559;28;20026;-71
2021/12/06 08:21:22;;;;;;;190.30;60.33;;;;;;;2.32;100.00;101435.47;4999058;28;20046;-70
2021/12/06 08:23:49;;;;;;;191.55;60.20;;;;;;;2.28;100.00;101440.50;4997393;28;20465;-71
2021/12/06 08:26:16;;;;;;;166.10;59.58;;;;;;;2.24;100.00;101433.91;4989280;28;20171;-72
2021/12/06 08:28:42;;;;;;;168.77;59.67;;;;;;;2.26;100.00;101431.81;4999151;28;20100;-70
2021/12/06 08:31:09;;;;;;;178.98;58.58;;;;;;;2.03;100.00;101430.75;4997007;28;20050;-70
2021/12/06 08:33:36;;;;;;;163.27;55.00;;;;;;;1.81;100.00;101430.50;4998484;28;20092;-71
2021/12/06 08:36:04;;;;;;;159.52;58.05;;;;;;;2.07;100.00;101423.06;4996657;28;20041;-71
2021/12/06 08:38:31;;;;;;;171.55;60.83;;;;;;;1.98;100.00;101421.75;4998972;28;20042;-71
2021/12/06 08:40:59;;;;;;;360.10;79.80;;;;;;;2.28;100.00;101423.53;4997876;28;20472;-71
2021/12/06 08:43:25;;;;;;;172.30;61.88;;;;;;;2.40;100.00;101416.28;4997996;28;20041;-72
2021/12/06 08:45:55;;;;;;;161.75;58.42;;;;;;;2.28;100.00;101415.47;4977340;28;20128;-72
2021/12/06 08:48:24;;;;;;;163.40;61.97;;;;;;;2.10;100.00;101411.00;4995990;28;20038;-72
2021/12/06 08:50:52;;;;;;;137.40;56.05;;;;;;;2.44;100.00;101414.72;4980818;28;20045;-71
2021/12/06 08:53:18;;;;;;;132.23;55.40;;;;;;;2.52;100.00;101413.56;4996256;28;20475;-71
2021/12/06 08:55:44;;;;;;;142.70;58.08;;;;;;;2.74;100.00;101411.09;4997565;28;20459;-71
2021/12/06 08:58:09;;;;;;;145.45;61.85;;;;;;;2.87;100.00;101410.81;4997962;28;20460;-71
2021/12/06 09:00:36;;;;;;;129.60;55.47;;;;;;;3.00;100.00;101418.63;4998062;28;20069;-72
2021/12/06 09:03:02;;;;;;;131.85;55.88;;;;;;;3.05;100.00;101426.78;4998254;28;20042;-72
2021/12/06 09:05:33;;;;;;;140.20;56.33;;;;;;;3.17;100.00;101422.22;4996964;28;20053;-72
2021/12/06 09:07:59;;;;;;;160.40;61.53;;;;;;;3.16;100.00;101439.41;4996579;28;20034;-71
2021/12/06 09:10:25;;;;;;;139.07;58.15;;;;;;;3.11;100.00;101438.50;4996539;28;20053;-72
2021/12/06 09:12:50;;;;;;;125.68;54.47;;;;;;;3.27;100.00;101435.06;4997043;28;20123;-71
2021/12/06 09:15:20;;;;;;;135.45;56.17;;;;;;;3.33;100.00;101439.47;4999213;28;20045;-72
2021/12/06 09:17:46;;;;;;;118.70;52.40;;;;;;;3.41;100.00;101443.69;4997699;28;20129;-71
2021/12/06 09:20:13;;;;;;;128.05;53.55;;;;;;;3.45;100.00;101447.53;4997718;28;20099;-72
2021/12/06 09:22:39;;;;;;;124.55;53.67;;;;;;;3.55;100.00;101438.78;4999571;28;20049;-71
2021/12/06 09:25:06;;;;;;;230.20;64.43;;;;;;;3.38;100.00;101449.56;4994950;28;20038;-72
2021/12/06 09:27:32;;;;;;;166.50;57.00;;;;;;;3.32;100.00;101447.81;4977638;28;20046;-71
2021/12/06 09:29:58;;;;;;;159.80;59.53;;;;;;;3.39;100.00;101441.22;4999305;28;20200;-71
2021/12/06 09:32:24;;;;;;;172.77;60.88;;;;;;;3.41;100.00;101443.69;4981999;28;20041;-71
2021/12/06 09:34:51;;;;;;;150.32;57.70;;;;;;;3.59;100.00;101443.47;4999815;28;20328;-72
2021/12/06 09:37:19;;;;;;;176.68;58.30;;;;;;;3.39;100.00;101456.56;4998311;28;20057;-72
2021/12/06 09:39:45;;;;;;;148.35;59.53;;;;;;;3.48;100.00;101455.13;4997632;28;20509;-70
2021/12/06 09:42:10;;;;;;;173.60;61.92;;;;;;;2.78;100.00;101452.63;4996189;28;20656;-71
2021/12/06 09:44:36;;;;;;;185.73;63.30;;;;;;;2.55;100.00;101451.59;4997967;28;20042;-71
2021/12/06 09:47:03;;;;;;;160.10;61.97;;;;;;;3.04;100.00;101448.59;4996214;28;20394;-72
2021/12/06 09:49:30;;;;;;;166.45;65.20;;;;;;;3.34;100.00;101459.16;5000711;28;20087;-71
2021/12/06 09:52:00;;;;;;;191.90;65.35;;;;;;;3.33;100.00;101460.22;5001779;28;20147;-71
2021/12/06 09:54:32;;;;;;;179.50;64.10;;;;;;;3.42;100.00;101466.06;4998536;28;20050;-71
2021/12/06 09:56:59;;;;;;;181.63;64.43;;;;;;;3.43;100.00;101468.50;4999017;28;20064;-71
2021/12/06 09:59:27;;;;;;;185.02;65.45;;;;;;;3.35;100.00;101466.22;4999265;28;20481;-71
2021/12/06 10:01:59;;;;;;;154.15;59.65;;;;;;;3.62;100.00;101472.66;4997541;28;20152;-70
2021/12/06 10:04:27;;;;;;;158.48;61.08;;;;;;;3.67;100.00;101463.03;4998848;28;20468;-70
2021/12/06 10:06:54;;;;;;;150.48;60.83;;;;;;;3.84;100.00;101463.88;4998262;28;20147;-71
2021/12/06 10:09:22;;;;;;;155.27;57.35;;;;;;;3.99;100.00;101466.84;4998448;28;20042;-71
2021/12/06 10:11:49;;;;;;;159.40;57.28;;;;;;;3.95;100.00;101452.16;4998756;28;20042;-71
2021/12/06 10:14:15;;;;;;;157.80;59.53;;;;;;;4.01;100.00;101453.06;4997735;28;20121;-72
2021/12/06 10:16:42;;;;;;;137.45;52.28;;;;;;;3.94;100.00;101444.34;4999332;28;20495;-72
2021/12/06 10:19:08;;;;;;;141.52;54.72;;;;;;;3.77;100.00;101426.25;4999069;28;20064;-71
2021/12/06 10:21:35;;;;;;;138.35;56.03;;;;;;;3.90;100.00;101435.06;4997935;28;20573;-73
2021/12/06 10:24:00;;;;;;;138.45;57.80;;;;;;;4.02;100.00;101433.97;4998257;28;20077;-74
2021/12/06 10:26:29;;;;;;;120.10;51.20;;;;;;;4.08;100.00;101435.66;4997374;28;20522;-72
2021/12/06 10:29:22;;;;;;;115.30;52.47;;;;;;;3.81;100.00;101434.66;5001175;28;20052;-72
2021/12/06 10:31:51;;;;;;;127.80;53.20;;;;;;;3.94;100.00;101438.94;4977663;28;20045;-72
2021/12/06 10:34:22;;;;;;;129.38;52.80;;;;;;;3.99;100.00;101429.06;4997814;28;20041;-72
2021/12/06 10:36:48;;;;;;;138.45;54.47;;;;;;;3.81;100.00;101415.78;4998407;28;20038;-72
2021/12/06 10:39:13;;;;;;;120.78;49.72;;;;;;;3.72;100.00;101417.25;4997497;28;20048;-71
2021/12/06 10:41:39;;;;;;;109.32;46.75;;;;;;;3.78;100.00;101409.03;4997221;28;20393;-71
2021/12/06 10:44:10;;;;;;;113.15;47.63;;;;;;;3.80;100.00;101397.97;4997703;28;20038;-72
2021/12/06 10:46:39;;;;;;;127.30;50.25;;;;;;;3.88;100.00;101384.06;5005497;28;20294;-72
2021/12/06 10:49:10;;;;;;;144.10;47.85;;;;;;;3.78;100.00;101370.41;4997941;28;20045;-70
2021/12/06 10:51:36;;;;;;;117.38;46.60;;;;;;;3.62;100.00;101366.66;4980684;28;20523;-71
2021/12/06 10:54:15;;;;;;;118.57;47.20;;;;;;;3.77;100.00;101366.91;4999060;28;20124;-72
2021/12/06 10:56:45;;;;;;;110.32;45.80;;;;;;;3.70;100.00;101370.84;4998834;28;20037;-71
2021/12/06 10:59:22;;;;;;;104.20;45.17;;;;;;;3.77;100.00;101366.09;4998480;28;20383;-71
2021/12/06 11:01:52;;;;;;;118.22;45.42;;;;;;;3.78;100.00;101367.72;4998288;28;20045;-72
2021/12/06 11:04:20;;;;;;;119.40;43.30;;;;;;;3.73;100.00;101364.94;4997335;28;20076;-72
2021/12/06 11:06:49;;;;;;;120.70;44.30;;;;;;;3.13;100.00;101359.06;4998050;28;20040;-72
2021/12/06 11:09:22;;;;;;;116.30;44.28;;;;;;;3.63;100.00;101355.59;4991231;28;20045;-71
2021/12/06 11:11:53;;;;;;;110.75;44.38;;;;;;;3.78;100.00;101348.81;4997896;28;20373;-71
2021/12/06 11:14:22;;;;;;;107.22;45.42;;;;;;;3.87;100.00;101350.06;4999870;28;20044;-71
2021/12/06 11:16:55;;;;;;;118.85;46.50;;;;;;;3.64;100.00;101345.66;4977174;28;20206;-71
2021/12/06 11:19:23;;;;;;;103.22;45.35;;;;;;;3.61;100.00;101344.28;4991729;28;20074;-70